Time;durP1;ratioP1;P1;durP2;ratioP2;P2;SDS_P1;SDS_P2;PMS_P1;PMS_P2;Temp;Humidity;BMP_temperature;BMP_pressure;BME280_temperature;BME280_humidity;BME280_pressure;Samples;Min_cycle;Max_cycle;Signal;HPM_P1;HPM_P2
2021/12/29 00:00:25;;;;;;;15.40;11.32;;;;;;;;;;5095373;28;20284;-69
2021/12/29 00:02:53;;;;;;;16.08;12.57;;;;;;;;;;5095425;28;20178;-69
2021/12/29 00:05:20;;;;;;;14.80;11.25;;;;;;;;;;5095478;28;20316;-69
2021/12/29 00:07:47;;;;;;;16.43;11.47;;;;;;;;;;5095314;28;20196;-69
2021/12/29 00:10:15;;;;;;;16.00;11.40;;;;;;;;;;5095531;28;20531;-69
2021/12/29 00:12:47;;;;;;;16.65;11.60;;;;;;;;;;5095665;28;20197;-68
2021/12/29 00:15:16;;;;;;;12.67;9.70;;;;;;;;;;5096177;28;20631;-68
2021/12/29 00:17:45;;;;;;;12.67;9.43;;;;;;;;;;5095051;28;20895;-68
2021/12/29 00:20:14;;;;;;;13.20;9.98;;;;;;;;;;5095089;28;20566;-68
2021/12/29 00:22:41;;;;;;;14.25;9.82;;;;;;;;;;5095458;28;20281;-69
2021/12/29 00:25:09;;;;;;;10.50;7.30;;;;;;;;;;5095438;28;20761;-68
2021/12/29 00:27:36;;;;;;;12.30;8.27;;;;;;;;;;5095341;28;20474;-67
2021/12/29 00:30:05;;;;;;;18.87;8.00;;;;;;;;;;5095349;28;20533;-67
2021/12/29 00:32:32;;;;;;;10.13;6.80;;;;;;;;;;5094850;28;20446;-67
2021/12/29 00:35:00;;;;;;;10.93;8.60;;;;;;;;;;5094758;28;20538;-67
2021/12/29 00:37:27;;;;;;;8.03;6.90;;;;;;;;;;5095016;28;20441;-67
2021/12/29 00:39:54;;;;;;;8.45;5.80;;;;;;;;;;5094662;28;20527;-67
2021/12/29 00:42:22;;;;;;;7.32;5.85;;;;;;;;;;5094971;28;20204;-68
2021/12/29 00:44:50;;;;;;;7.23;4.90;;;;;;;;;;5094441;28;20732;-67
2021/12/29 00:47:18;;;;;;;8.43;5.97;;;;;;;;;;5094527;28;20917;-67
2021/12/29 00:49:46;;;;;;;6.93;5.90;;;;;;;;;;5094398;28;20535;-67
2021/12/29 00:52:14;;;;;;;6.97;5.57;;;;;;;;;;5094803;28;20500;-68
2021/12/29 00:54:42;;;;;;;4.93;4.43;;;;;;;;;;5094727;28;20465;-67
2021/12/29 00:57:09;;;;;;;6.40;5.40;;;;;;;;;;5094764;28;20290;-66
2021/12/29 00:59:36;;;;;;;9.07;5.77;;;;;;;;;;5094579;28;20471;-67
2021/12/29 01:02:04;;;;;;;7.30;6.20;;;;;;;;;;5094669;28;20865;-66
2021/12/29 01:04:33;;;;;;;7.10;5.07;;;;;;;;;;5094427;28;20573;-67
2021/12/29 01:07:00;;;;;;;6.23;5.10;;;;;;;;;;5094462;28;20857;-67
2021/12/29 01:09:27;;;;;;;8.90;5.50;;;;;;;;;;5094102;28;20475;-67
2021/12/29 01:11:57;;;;;;;5.40;4.70;;;;;;;;;;5094354;28;20190;-68
2021/12/29 01:14:25;;;;;;;7.57;5.43;;;;;;;;;;5093805;28;20204;-67
2021/12/29 01:16:53;;;;;;;4.10;3.60;;;;;;;;;;5094199;28;21047;-67
2021/12/29 01:19:21;;;;;;;5.40;4.03;;;;;;;;;;5094185;28;20539;-67
2021/12/29 01:21:51;;;;;;;5.20;4.70;;;;;;;;;;5093894;28;20517;-68
2021/12/29 01:24:21;;;;;;;7.20;5.00;;;;;;;;;;5093448;28;20628;-68
2021/12/29 01:26:48;;;;;;;7.70;5.45;;;;;;;;;;5094394;28;20223;-68
2021/12/29 01:29:16;;;;;;;4.57;4.05;;;;;;;;;;5094155;28;20686;-68
2021/12/29 01:31:43;;;;;;;5.20;4.27;;;;;;;;;;5093662;28;20284;-68
2021/12/29 01:34:11;;;;;;;5.07;4.57;;;;;;;;;;5093955;28;20479;-68
2021/12/29 01:36:39;;;;;;;5.50;4.87;;;;;;;;;;5093575;28;20478;-68
2021/12/29 01:39:10;;;;;;;5.65;4.20;;;;;;;;;;5094328;28;20527;-68
2021/12/29 01:41:38;;;;;;;5.10;4.60;;;;;;;;;;5094056;28;20214;-67
2021/12/29 01:44:05;;;;;;;5.50;4.57;;;;;;;;;;5094469;28;20276;-68
2021/12/29 01:46:33;;;;;;;6.63;5.67;;;;;;;;;;5093393;28;20526;-67
2021/12/29 01:49:00;;;;;;;5.10;4.53;;;;;;;;;;5093690;28;20847;-68
2021/12/29 01:51:29;;;;;;;5.25;4.43;;;;;;;;;;5093671;28;20533;-68
2021/12/29 01:54:04;;;;;;;4.50;4.10;;;;;;;;;;5094005;28;20193;-68
2021/12/29 01:56:33;;;;;;;4.70;4.00;;;;;;;;;;5093665;28;20552;-68
2021/12/29 01:59:01;;;;;;;6.35;4.10;;;;;;;;;;5093672;28;20806;-68
2021/12/29 02:01:28;;;;;;;5.20;4.67;;;;;;;;;;5093305;28;20197;-68
2021/12/29 02:03:58;;;;;;;5.60;2.67;;;;;;;;;;5093706;28;20454;-68
2021/12/29 02:06:25;;;;;;;4.97;4.10;;;;;;;;;;5093785;28;20284;-68
2021/12/29 02:08:55;;;;;;;4.67;3.73;;;;;;;;;;5093831;28;20313;-67
2021/12/29 02:11:28;;;;;;;4.28;3.42;;;;;;;;;;5093198;28;20450;-67
2021/12/29 02:13:57;;;;;;;6.90;5.33;;;;;;;;;;5093839;28;20201;-67
2021/12/29 02:16:24;;;;;;;4.43;4.00;;;;;;;;;;5093163;28;20510;-67
2021/12/29 02:18:52;;;;;;;4.95;4.30;;;;;;;;;;5093136;28;20436;-67
2021/12/29 02:21:21;;;;;;;4.30;3.90;;;;;;;;;;5093443;28;20197;-68
2021/12/29 02:24:15;;;;;;;6.32;4.75;;;;;;;;;;5093700;28;20623;-67
2021/12/29 02:26:42;;;;;;;5.20;4.70;;;;;;;;;;5093128;28;20192;-67
2021/12/29 02:29:10;;;;;;;7.65;4.75;;;;;;;;;;5093467;28;20438;-67
2021/12/29 02:31:38;;;;;;;5.03;4.20;;;;;;;;;;5093228;28;20291;-67
2021/12/29 02:34:07;;;;;;;5.63;4.43;;;;;;;;;;5093337;28;20284;-66
2021/12/29 02:36:42;;;;;;;4.70;3.80;;;;;;;;;;5095636;28;20526;-67
2021/12/29 02:39:10;;;;;;;6.43;4.50;;;;;;;;;;5096969;28;20472;-67
2021/12/29 02:41:37;;;;;;;4.35;3.95;;;;;;;;;;5097615;28;20848;-67
2021/12/29 02:44:10;;;;;;;4.37;3.43;;;;;;;;;;5097018;28;20198;-66
2021/12/29 02:46:38;;;;;;;6.37;5.30;;;;;;;;;;5097495;28;20455;-68
2021/12/29 02:49:05;;;;;;;5.30;4.47;;;;;;;;;;5096807;28;20450;-67
2021/12/29 02:51:34;;;;;;;7.33;4.27;;;;;;;;;;5097300;28;20226;-67
2021/12/29 02:54:04;;;;;;;5.22;4.18;;;;;;;;;;5097169;28;20515;-67
2021/12/29 02:56:31;;;;;;;6.23;5.00;;;;;;;;;;5096839;28;20284;-68
2021/12/29 02:58:59;;;;;;;5.22;4.72;;;;;;;;;;5096892;28;20510;-68
2021/12/29 03:01:27;;;;;;;6.00;4.72;;;;;;;;;;5097120;28;20189;-67
2021/12/29 03:03:55;;;;;;;6.00;4.30;;;;;;;;;;5096459;28;20204;-67
2021/12/29 03:06:22;;;;;;;6.00;4.50;;;;;;;;;;5096641;28;20467;-67
2021/12/29 03:08:50;;;;;;;4.65;3.97;;;;;;;;;;5096904;28;20193;-68
2021/12/29 03:11:19;;;;;;;4.70;4.28;;;;;;;;;;5096295;28;20280;-68
2021/12/29 03:13:46;;;;;;;5.13;4.05;;;;;;;;;;5096221;28;20260;-68
2021/12/29 03:16:13;;;;;;;4.53;4.13;;;;;;;;;;5096165;28;20237;-68
2021/12/29 03:18:41;;;;;;;5.20;4.68;;;;;;;;;;5096629;28;20840;-68
2021/12/29 03:21:08;;;;;;;5.20;4.38;;;;;;;;;;5096101;28;20197;-68
2021/12/29 03:23:36;;;;;;;7.03;5.07;;;;;;;;;;5096160;28;20236;-68
2021/12/29 03:26:06;;;;;;;8.73;5.32;;;;;;;;;;5096068;28;20532;-68
2021/12/29 03:28:35;;;;;;;5.32;4.00;;;;;;;;;;5096141;28;20656;-69
2021/12/29 03:31:03;;;;;;;6.43;4.30;;;;;;;;;;5096407;28;20285;-68
2021/12/29 03:33:30;;;;;;;6.55;4.80;;;;;;;;;;5096276;28;20527;-68
2021/12/29 03:36:00;;;;;;;14.00;5.00;;;;;;;;;;5096165;28;20240;-68
2021/12/29 03:38:28;;;;;;;6.03;5.27;;;;;;;;;;5096096;28;20530;-68
2021/12/29 03:40:55;;;;;;;7.38;5.05;;;;;;;;;;5095943;28;21025;-69
2021/12/29 03:43:23;;;;;;;7.88;6.32;;;;;;;;;;5096003;28;20202;-68
2021/12/29 03:45:54;;;;;;;6.63;5.75;;;;;;;;;;5095685;28;20311;-69
2021/12/29 03:48:23;;;;;;;8.25;5.90;;;;;;;;;;5095382;28;20245;-69
2021/12/29 03:50:50;;;;;;;7.33;5.20;;;;;;;;;;5095868;28;20727;-69
2021/12/29 03:53:18;;;;;;;9.65;5.78;;;;;;;;;;5095615;28;20533;-69
2021/12/29 03:55:46;;;;;;;10.60;6.30;;;;;;;;;;5095825;28;20204;-69
2021/12/29 03:58:13;;;;;;;8.43;6.50;;;;;;;;;;5095843;28;20463;-68
2021/12/29 04:00:40;;;;;;;7.88;5.57;;;;;;;;;;5095850;28;20281;-69
2021/12/29 04:03:09;;;;;;;8.30;6.33;;;;;;;;;;5095651;28;20198;-68
2021/12/29 04:05:36;;;;;;;9.25;6.20;;;;;;;;;;5095553;28;21072;-68
2021/12/29 04:08:04;;;;;;;6.50;5.65;;;;;;;;;;5095602;28;20194;-68
2021/12/29 04:10:31;;;;;;;8.88;6.32;;;;;;;;;;5095320;28;20618;-68
2021/12/29 04:12:58;;;;;;;8.43;6.23;;;;;;;;;;5095448;28;20288;-69
2021/12/29 04:15:27;;;;;;;7.63;5.77;;;;;;;;;;5095455;28;20531;-69
2021/12/29 04:17:58;;;;;;;6.80;6.03;;;;;;;;;;5095795;28;20491;-68
2021/12/29 04:23:13;;;;;;;7.70;6.65;;;;;;;;;;5095331;28;20469;-68
2021/12/29 04:25:41;;;;;;;10.35;8.45;;;;;;;;;;5094837;28;20304;-68
2021/12/29 04:28:13;;;;;;;16.43;11.40;;;;;;;;;;5094837;28;20202;-69
2021/12/29 04:30:40;;;;;;;16.77;11.00;;;;;;;;;;5095197;28;20428;-69
2021/12/29 04:33:08;;;;;;;18.33;10.00;;;;;;;;;;5095164;28;20453;-69
2021/12/29 04:35:36;;;;;;;15.05;9.25;;;;;;;;;;5094766;28;20534;-69
2021/12/29 04:38:04;;;;;;;19.63;12.23;;;;;;;;;;5094744;28;20209;-69
2021/12/29 04:40:31;;;;;;;16.85;11.57;;;;;;;;;;5095812;28;20197;-69
2021/12/29 04:42:59;;;;;;;23.65;15.38;;;;;;;;;;5094820;28;20284;-69
2021/12/29 04:45:26;;;;;;;19.60;14.20;;;;;;;;;;5094856;28;20259;-69
2021/12/29 04:47:53;;;;;;;24.67;13.70;;;;;;;;;;5094647;28;20527;-69
2021/12/29 04:50:26;;;;;;;20.45;12.40;;;;;;;;;;5094515;28;20286;-69
2021/12/29 04:52:56;;;;;;;23.95;13.45;;;;;;;;;;5095271;28;20631;-69
2021/12/29 04:55:23;;;;;;;23.00;13.93;;;;;;;;;;5094369;28;20283;-69
2021/12/29 04:57:50;;;;;;;20.48;12.90;;;;;;;;;;5094954;28;20555;-70
2021/12/29 05:00:18;;;;;;;19.92;12.02;;;;;;;;;;5093307;28;20207;-69
2021/12/29 05:02:46;;;;;;;19.77;11.20;;;;;;;;;;5094895;28;20283;-69
2021/12/29 05:05:22;;;;;;;18.45;11.90;;;;;;;;;;5094962;28;20224;-69
2021/12/29 05:10:37;;;;;;;21.10;11.20;;;;;;;;;;5094523;28;20223;-70
2021/12/29 05:13:04;;;;;;;16.98;12.88;;;;;;;;;;5094211;28;20475;-70
2021/12/29 05:15:31;;;;;;;11.68;7.55;;;;;;;;;;5094249;28;20204;-69
2021/12/29 05:17:59;;;;;;;15.70;9.52;;;;;;;;;;5095205;28;20232;-69
2021/12/29 05:20:28;;;;;;;16.23;9.80;;;;;;;;;;5093885;28;20223;-69
2021/12/29 05:22:55;;;;;;;20.55;11.15;;;;;;;;;;5093018;28;20351;-69
2021/12/29 05:25:22;;;;;;;10.50;7.80;;;;;;;;;;5093978;28;20308;-69
2021/12/29 05:27:51;;;;;;;12.50;7.07;;;;;;;;;;5094049;28;20282;-69
2021/12/29 05:30:19;;;;;;;18.35;10.20;;;;;;;;;;5094291;28;20627;-69
2021/12/29 05:32:46;;;;;;;17.95;10.50;;;;;;;;;;5094284;28;20652;-69
2021/12/29 05:35:14;;;;;;;10.90;7.03;;;;;;;;;;5093620;28;20711;-69
2021/12/29 05:37:41;;;;;;;10.30;8.65;;;;;;;;;;5094417;28;20284;-69
2021/12/29 05:40:10;;;;;;;12.18;6.78;;;;;;;;;;5094098;28;20189;-69
2021/12/29 05:42:37;;;;;;;12.83;8.07;;;;;;;;;;5093561;28;20201;-69
2021/12/29 05:45:07;;;;;;;16.83;9.13;;;;;;;;;;5094398;28;20452;-68
2021/12/29 05:47:34;;;;;;;15.73;10.27;;;;;;;;;;5093486;28;20273;-69
2021/12/29 05:50:02;;;;;;;12.90;8.57;;;;;;;;;;5093679;28;20527;-69
2021/12/29 05:52:29;;;;;;;14.40;9.93;;;;;;;;;;5093582;28;20243;-69
2021/12/29 05:54:56;;;;;;;13.80;9.00;;;;;;;;;;5093635;28;20522;-69
2021/12/29 05:57:24;;;;;;;13.67;9.30;;;;;;;;;;5093568;28;20529;-69
2021/12/29 05:59:51;;;;;;;12.70;9.23;;;;;;;;;;5093549;28;21001;-68
2021/12/29 06:02:19;;;;;;;8.10;5.43;;;;;;;;;;5093295;28;20529;-69
2021/12/29 06:04:47;;;;;;;11.00;7.78;;;;;;;;;;5093762;28;20199;-69
2021/12/29 06:07:14;;;;;;;9.90;7.85;;;;;;;;;;5093145;28;20221;-69
2021/12/29 06:09:41;;;;;;;10.57;7.00;;;;;;;;;;5093918;28;20719;-69
2021/12/29 06:12:09;;;;;;;7.07;5.65;;;;;;;;;;5093260;28;20193;-69
2021/12/29 06:14:36;;;;;;;8.50;6.53;;;;;;;;;;5093837;28;20309;-69
2021/12/29 06:17:03;;;;;;;10.07;6.88;;;;;;;;;;5093280;28;20311;-69
2021/12/29 06:19:33;;;;;;;8.75;6.75;;;;;;;;;;5093438;28;20228;-68
2021/12/29 06:22:01;;;;;;;11.27;7.78;;;;;;;;;;5093697;28;20194;-68
2021/12/29 06:24:28;;;;;;;8.70;6.45;;;;;;;;;;5092931;28;20287;-68
2021/12/29 06:26:55;;;;;;;7.60;6.10;;;;;;;;;;5093604;28;20326;-68
2021/12/29 06:29:22;;;;;;;8.27;6.95;;;;;;;;;;5093007;28;20284;-68
2021/12/29 06:31:50;;;;;;;8.27;5.65;;;;;;;;;;5093599;28;20195;-68
2021/12/29 06:34:17;;;;;;;7.88;5.70;;;;;;;;;;5093459;28;20205;-68
2021/12/29 06:36:46;;;;;;;7.78;6.40;;;;;;;;;;5092798;28;20256;-68
2021/12/29 06:39:13;;;;;;;6.53;5.15;;;;;;;;;;5093395;28;20667;-68
2021/12/29 06:41:41;;;;;;;5.95;4.95;;;;;;;;;;5092639;28;20289;-68
2021/12/29 06:44:08;;;;;;;6.23;4.57;;;;;;;;;;5093061;28;20193;-68
2021/12/29 06:46:36;;;;;;;9.63;5.45;;;;;;;;;;5092663;28;20477;-68
2021/12/29 06:49:03;;;;;;;7.75;4.78;;;;;;;;;;5092750;28;20254;-68
2021/12/29 06:51:30;;;;;;;8.25;5.03;;;;;;;;;;5093239;28;20560;-68
2021/12/29 06:53:59;;;;;;;7.25;4.75;;;;;;;;;;5092784;28;20280;-68
2021/12/29 06:56:26;;;;;;;6.35;5.20;;;;;;;;;;5092668;28;20207;-68
2021/12/29 06:58:53;;;;;;;9.07;5.80;;;;;;;;;;5093315;28;20239;-68
2021/12/29 07:01:21;;;;;;;11.82;6.45;;;;;;;;;;5093162;28;20518;-69
2021/12/29 07:03:48;;;;;;;15.93;7.28;;;;;;;;;;5092587;28;20200;-68
2021/12/29 07:06:15;;;;;;;13.30;7.85;;;;;;;;;;5092853;28;20217;-68
2021/12/29 07:08:42;;;;;;;16.85;9.40;;;;;;;;;;5092831;28;20225;-68
2021/12/29 07:11:11;;;;;;;15.82;9.52;;;;;;;;;;5092492;28;20283;-68
2021/12/29 07:13:38;;;;;;;18.30;9.87;;;;;;;;;;5092675;28;20295;-68
2021/12/29 07:16:05;;;;;;;22.57;11.50;;;;;;;;;;5092377;28;20992;-67
2021/12/29 07:18:33;;;;;;;28.80;11.88;;;;;;;;;;5093008;28;20450;-68
2021/12/29 07:21:00;;;;;;;22.80;11.20;;;;;;;;;;5093191;28;20193;-68
2021/12/29 07:23:27;;;;;;;19.40;12.07;;;;;;;;;;5095145;28;20623;-68
2021/12/29 07:25:54;;;;;;;25.27;12.55;;;;;;;;;;5096101;28;20644;-68
2021/12/29 07:28:23;;;;;;;21.10;11.10;;;;;;;;;;5096101;28;20283;-68
2021/12/29 07:30:50;;;;;;;22.50;13.60;;;;;;;;;;5096503;28;20279;-68
2021/12/29 07:33:17;;;;;;;23.20;13.40;;;;;;;;;;5095965;28;20942;-68
2021/12/29 07:35:45;;;;;;;25.63;11.45;;;;;;;;;;5097131;28;20526;-69
2021/12/29 07:38:12;;;;;;;24.45;12.82;;;;;;;;;;5096665;28;20639;-68
2021/12/29 07:40:39;;;;;;;23.42;12.43;;;;;;;;;;5095861;28;20225;-68
2021/12/29 07:43:06;;;;;;;27.33;12.20;;;;;;;;;;5095729;28;20193;-68
2021/12/29 07:45:36;;;;;;;22.20;13.13;;;;;;;;;;5096529;28;20360;-69
2021/12/29 07:48:05;;;;;;;22.42;13.75;;;;;;;;;;5095846;28;20478;-68
2021/12/29 07:50:32;;;;;;;24.63;13.40;;;;;;;;;;5096200;28;20246;-68
2021/12/29 07:53:05;;;;;;;22.00;12.43;;;;;;;;;;5096078;28;20284;-68
2021/12/29 07:55:32;;;;;;;20.90;11.82;;;;;;;;;;5095071;28;20272;-68
2021/12/29 07:58:00;;;;;;;29.80;14.87;;;;;;;;;;5096477;28;20240;-68
2021/12/29 08:00:33;;;;;;;24.90;13.68;;;;;;;;;;5095892;28;20475;-68
2021/12/29 08:03:05;;;;;;;28.13;14.73;;;;;;;;;;5096053;28;20217;-68
2021/12/29 08:05:32;;;;;;;24.08;12.80;;;;;;;;;;5095786;28;20272;-68
2021/12/29 08:07:59;;;;;;;32.30;16.80;;;;;;;;;;5095285;28;20220;-68
2021/12/29 08:10:27;;;;;;;27.60;14.03;;;;;;;;;;5095707;28;20247;-68
2021/12/29 08:12:54;;;;;;;24.48;14.82;;;;;;;;;;5095638;28;20443;-69
2021/12/29 08:15:22;;;;;;;27.88;15.40;;;;;;;;;;5095875;28;20198;-68
2021/12/29 08:17:49;;;;;;;31.20;16.42;;;;;;;;;;5095832;28;20256;-69
2021/12/29 08:20:17;;;;;;;25.58;14.20;;;;;;;;;;5095459;28;20193;-68
2021/12/29 08:22:45;;;;;;;29.67;14.27;;;;;;;;;;5096041;28;20622;-68
2021/12/29 08:25:12;;;;;;;20.43;13.70;;;;;;;;;;5095433;28;20450;-68
2021/12/29 08:27:39;;;;;;;25.02;14.27;;;;;;;;;;5095211;28;20805;-68
2021/12/29 08:30:07;;;;;;;22.60;14.10;;;;;;;;;;5095366;28;20284;-68
2021/12/29 08:32:34;;;;;;;33.50;14.85;;;;;;;;;;5094889;28;20957;-68
2021/12/29 08:35:02;;;;;;;31.65;16.08;;;;;;;;;;5094621;28;20200;-69
2021/12/29 08:37:30;;;;;;;28.53;15.47;;;;;;;;;;5095219;28;20312;-69
2021/12/29 08:39:58;;;;;;;26.47;15.63;;;;;;;;;;5094821;28;20952;-68
2021/12/29 08:42:25;;;;;;;30.55;17.10;;;;;;;;;;5094731;28;20530;-69
2021/12/29 08:44:52;;;;;;;28.17;16.30;;;;;;;;;;5094963;28;20219;-68
2021/12/29 08:47:20;;;;;;;29.70;15.50;;;;;;;;;;5094612;28;20980;-68
2021/12/29 08:49:47;;;;;;;23.42;15.07;;;;;;;;;;5094482;28;20450;-69
2021/12/29 08:52:14;;;;;;;22.00;16.13;;;;;;;;;;5095030;28;20287;-69
2021/12/29 08:54:43;;;;;;;29.60;16.10;;;;;;;;;;5094992;28;20521;-69
2021/12/29 08:57:10;;;;;;;22.75;14.93;;;;;;;;;;5094686;28;20458;-69
2021/12/29 08:59:37;;;;;;;25.50;15.80;;;;;;;;;;5095212;28;20197;-68
2021/12/29 09:02:05;;;;;;;25.00;14.97;;;;;;;;;;5094606;28;20432;-68
2021/12/29 09:04:32;;;;;;;26.00;16.73;;;;;;;;;;5094534;28;20435;-69
2021/12/29 09:06:59;;;;;;;24.97;15.77;;;;;;;;;;5093998;28;20510;-69
2021/12/29 09:09:27;;;;;;;21.90;14.50;;;;;;;;;;5094863;28;20490;-68
2021/12/29 09:11:55;;;;;;;21.40;13.70;;;;;;;;;;5094644;28;20845;-68
2021/12/29 09:14:22;;;;;;;22.87;14.80;;;;;;;;;;5094322;28;20875;-68
2021/12/29 09:16:50;;;;;;;37.10;13.73;;;;;;;;;;5094404;28;20479;-68
2021/12/29 09:19:17;;;;;;;24.42;14.38;;;;;;;;;;5094303;28;20479;-68
2021/12/29 09:21:44;;;;;;;26.77;14.67;;;;;;;;;;5093968;28;20236;-68
2021/12/29 09:24:13;;;;;;;22.40;14.27;;;;;;;;;;5093229;28;20927;-68
2021/12/29 09:26:40;;;;;;;20.92;14.10;;;;;;;;;;5093485;28;20215;-68
2021/12/29 09:29:09;;;;;;;22.47;14.13;;;;;;;;;;5093755;28;20215;-68
2021/12/29 09:31:36;;;;;;;23.02;13.55;;;;;;;;;;5094076;28;20439;-67
2021/12/29 09:34:03;;;;;;;19.20;13.17;;;;;;;;;;5093764;28;20675;-67
2021/12/29 09:36:31;;;;;;;24.00;12.83;;;;;;;;;;5093742;28;20489;-67
2021/12/29 09:39:00;;;;;;;20.37;13.47;;;;;;;;;;5094025;28;20476;-67
2021/12/29 09:41:30;;;;;;;20.20;14.20;;;;;;;;;;5093974;28;20934;-67
2021/12/29 09:43:57;;;;;;;19.83;13.10;;;;;;;;;;5094257;28;20534;-67
2021/12/29 09:46:26;;;;;;;22.60;15.00;;;;;;;;;;5093220;28;20527;-67
2021/12/29 09:48:54;;;;;;;19.60;13.20;;;;;;;;;;5094033;28;20443;-68
2021/12/29 09:51:21;;;;;;;20.50;13.23;;;;;;;;;;5093804;28;20497;-68
2021/12/29 09:53:50;;;;;;;21.80;13.93;;;;;;;;;;5093931;28;20775;-67
2021/12/29 09:56:17;;;;;;;21.23;14.67;;;;;;;;;;5093706;28;20534;-67
2021/12/29 09:58:44;;;;;;;18.58;14.52;;;;;;;;;;5093451;28;20522;-68
2021/12/29 10:01:12;;;;;;;21.48;13.43;;;;;;;;;;5093712;28;20292;-68
2021/12/29 10:03:44;;;;;;;18.23;13.40;;;;;;;;;;5093169;28;20197;-68
2021/12/29 10:06:11;;;;;;;15.90;11.47;;;;;;;;;;5093718;28;20438;-67
2021/12/29 10:08:40;;;;;;;17.37;11.70;;;;;;;;;;5093582;28;20479;-67
2021/12/29 10:11:09;;;;;;;19.20;12.35;;;;;;;;;;5093644;28;20535;-68
2021/12/29 10:13:37;;;;;;;20.67;13.80;;;;;;;;;;5093472;28;20283;-67
2021/12/29 10:16:07;;;;;;;21.90;13.87;;;;;;;;;;5093908;28;20661;-67
2021/12/29 10:18:36;;;;;;;16.35;12.80;;;;;;;;;;5093261;28;20439;-67
2021/12/29 10:21:07;;;;;;;17.30;13.10;;;;;;;;;;5093190;28;20204;-67
2021/12/29 10:23:35;;;;;;;14.75;10.52;;;;;;;;;;5093872;28;20511;-67
2021/12/29 10:26:06;;;;;;;17.90;13.15;;;;;;;;;;5092991;28;20665;-67
2021/12/29 10:28:33;;;;;;;22.03;14.07;;;;;;;;;;5093406;28;20299;-67
2021/12/29 10:31:02;;;;;;;20.20;13.80;;;;;;;;;;5093803;28;20526;-67
2021/12/29 10:33:39;;;;;;;19.33;12.90;;;;;;;;;;5093295;28;20479;-67
2021/12/29 10:36:16;;;;;;;17.07;12.40;;;;;;;;;;5093407;28;20511;-68
2021/12/29 10:38:43;;;;;;;19.42;12.10;;;;;;;;;;5092986;28;20523;-68
2021/12/29 10:41:11;;;;;;;18.07;12.37;;;;;;;;;;5093352;28;20288;-68
2021/12/29 10:43:40;;;;;;;18.10;12.10;;;;;;;;;;5093221;28;20534;-68
2021/12/29 10:46:18;;;;;;;18.70;12.83;;;;;;;;;;5093154;28;20243;-68
2021/12/29 10:48:47;;;;;;;22.50;13.13;;;;;;;;;;5093656;28;20555;-68
2021/12/29 10:51:16;;;;;;;27.55;14.10;;;;;;;;;;5093019;28;20199;-69
2021/12/29 10:53:43;;;;;;;19.75;13.88;;;;;;;;;;5093167;28;20223;-68
2021/12/29 10:56:20;;;;;;;21.93;13.50;;;;;;;;;;5093210;28;20284;-69
2021/12/29 10:58:47;;;;;;;19.83;11.40;;;;;;;;;;5097461;28;20517;-68
2021/12/29 11:01:15;;;;;;;17.83;13.40;;;;;;;;;;5097074;28;20863;-69
2021/12/29 11:03:44;;;;;;;18.20;13.17;;;;;;;;;;5097143;28;20190;-68
2021/12/29 11:06:12;;;;;;;20.13;13.93;;;;;;;;;;5097405;28;20518;-68
2021/12/29 11:08:48;;;;;;;29.73;15.23;;;;;;;;;;5097019;28;20271;-69
2021/12/29 11:11:15;;;;;;;25.90;14.33;;;;;;;;;;5096849;28;20189;-69
2021/12/29 11:13:42;;;;;;;17.50;11.70;;;;;;;;;;5096589;28;20926;-69
2021/12/29 11:16:10;;;;;;;20.37;15.20;;;;;;;;;;5096449;28;20502;-69
2021/12/29 11:18:42;;;;;;;21.77;16.15;;;;;;;;;;5096454;28;20427;-69
2021/12/29 11:21:09;;;;;;;24.42;15.70;;;;;;;;;;5096321;28;20229;-69
2021/12/29 11:23:41;;;;;;;23.60;16.30;;;;;;;;;;5096626;28;20653;-69
2021/12/29 11:26:12;;;;;;;22.17;16.02;;;;;;;;;;5097166;28;20189;-69
2021/12/29 11:28:40;;;;;;;20.17;16.13;;;;;;;;;;5096487;28;20217;-69
2021/12/29 11:31:09;;;;;;;25.67;16.27;;;;;;;;;;5096112;28;20194;-69
2021/12/29 11:33:37;;;;;;;20.37;15.60;;;;;;;;;;5096247;28;20447;-69
2021/12/29 11:36:04;;;;;;;26.67;15.90;;;;;;;;;;5096365;28;20475;-69
2021/12/29 11:38:34;;;;;;;26.20;16.10;;;;;;;;;;5096293;28;20453;-69
2021/12/29 11:41:02;;;;;;;25.63;15.40;;;;;;;;;;5097048;28;20446;-69
2021/12/29 11:43:31;;;;;;;25.17;15.97;;;;;;;;;;5095813;28;20534;-69
2021/12/29 11:45:58;;;;;;;31.87;18.87;;;;;;;;;;5096203;28;20523;-69
2021/12/29 11:48:26;;;;;;;28.10;16.37;;;;;;;;;;5096289;28;20467;-69
2021/12/29 11:50:55;;;;;;;25.70;16.27;;;;;;;;;;5095804;28;20446;-69
2021/12/29 11:53:31;;;;;;;22.27;16.90;;;;;;;;;;5095672;28;20505;-69
2021/12/29 11:56:00;;;;;;;27.77;18.47;;;;;;;;;;5096441;28;20535;-69
2021/12/29 11:58:28;;;;;;;29.00;16.30;;;;;;;;;;5095885;28;20526;-69
2021/12/29 12:01:06;;;;;;;25.30;17.00;;;;;;;;;;5096307;28;20526;-69
2021/12/29 12:03:40;;;;;;;24.10;16.37;;;;;;;;;;5095986;28;20432;-69
2021/12/29 12:06:07;;;;;;;26.60;17.53;;;;;;;;;;5095762;28;20518;-69
2021/12/29 12:08:35;;;;;;;27.52;18.33;;;;;;;;;;5095130;28;20482;-69
2021/12/29 12:11:02;;;;;;;24.10;17.92;;;;;;;;;;5095807;28;20281;-69
2021/12/29 12:13:30;;;;;;;22.63;16.47;;;;;;;;;;5095907;28;20193;-70
2021/12/29 12:16:09;;;;;;;29.27;18.60;;;;;;;;;;5095584;28;20538;-69
2021/12/29 12:18:44;;;;;;;27.87;17.50;;;;;;;;;;5095694;28;20534;-69
2021/12/29 12:21:20;;;;;;;26.10;17.13;;;;;;;;;;5095630;28;20517;-69
2021/12/29 12:23:48;;;;;;;30.07;19.17;;;;;;;;;;5095293;28;20431;-69
2021/12/29 12:26:18;;;;;;;25.33;17.60;;;;;;;;;;5095173;28;20994;-69
2021/12/29 12:28:46;;;;;;;25.67;17.13;;;;;;;;;;5095801;28;20580;-69
2021/12/29 12:31:23;;;;;;;32.30;18.13;;;;;;;;;;5095532;28;20288;-70
2021/12/29 12:33:51;;;;;;;29.70;20.53;;;;;;;;;;5095045;28;20518;-70
2021/12/29 12:36:19;;;;;;;29.80;19.60;;;;;;;;;;5094962;28;20445;-70
2021/12/29 12:38:47;;;;;;;26.70;19.07;;;;;;;;;;5094908;28;20447;-70
2021/12/29 12:41:16;;;;;;;32.07;20.70;;;;;;;;;;5095140;28;20461;-70
2021/12/29 12:43:51;;;;;;;31.03;21.00;;;;;;;;;;5095727;28;20923;-70
2021/12/29 12:46:29;;;;;;;32.40;19.77;;;;;;;;;;5095088;28;20482;-70
2021/12/29 12:48:56;;;;;;;25.83;18.23;;;;;;;;;;5095089;28;20550;-70
2021/12/29 12:51:24;;;;;;;35.37;21.20;;;;;;;;;;5094934;28;20502;-69
2021/12/29 12:53:55;;;;;;;31.40;18.83;;;;;;;;;;5094960;28;20919;-70
2021/12/29 12:56:25;;;;;;;31.13;22.63;;;;;;;;;;5095340;28;20509;-70
2021/12/29 12:59:02;;;;;;;31.13;21.00;;;;;;;;;;5095023;28;20435;-70
2021/12/29 13:01:33;;;;;;;29.43;20.03;;;;;;;;;;5094717;28;20433;-70
2021/12/29 13:04:02;;;;;;;32.60;21.33;;;;;;;;;;5094518;28;20419;-70
2021/12/29 13:06:34;;;;;;;34.53;22.10;;;;;;;;;;5094855;28;20827;-70
2021/12/29 13:09:03;;;;;;;36.63;23.10;;;;;;;;;;5094232;28;20463;-70
2021/12/29 13:11:31;;;;;;;35.03;23.33;;;;;;;;;;5094766;28;20621;-70
2021/12/29 13:13:59;;;;;;;32.33;21.67;;;;;;;;;;5094869;28;20448;-70
2021/12/29 13:16:26;;;;;;;34.30;23.30;;;;;;;;;;5094128;28;20514;-70
2021/12/29 13:18:56;;;;;;;34.50;23.73;;;;;;;;;;5094536;28;20780;-70
2021/12/29 13:21:25;;;;;;;32.27;21.30;;;;;;;;;;5093646;28;20442;-70
2021/12/29 13:23:53;;;;;;;32.53;21.60;;;;;;;;;;5094036;28;20439;-70
2021/12/29 13:26:20;;;;;;;33.33;23.40;;;;;;;;;;5093988;28;20528;-70
2021/12/29 13:28:50;;;;;;;38.33;23.40;;;;;;;;;;5093863;28;20570;-70
2021/12/29 13:31:18;;;;;;;27.40;21.30;;;;;;;;;;5093779;28;20568;-70
2021/12/29 13:33:48;;;;;;;36.90;22.43;;;;;;;;;;5094548;28;20433;-70
2021/12/29 13:36:17;;;;;;;43.77;24.50;;;;;;;;;;5094772;28;20438;-70
2021/12/29 13:38:45;;;;;;;32.83;22.60;;;;;;;;;;5094040;28;20484;-70
2021/12/29 13:41:13;;;;;;;40.40;24.57;;;;;;;;;;5093773;28;20432;-70
2021/12/29 13:43:42;;;;;;;33.23;24.10;;;;;;;;;;5093805;28;20554;-70
2021/12/29 13:46:11;;;;;;;32.60;22.83;;;;;;;;;;5093967;28;20435;-70
2021/12/29 13:48:39;;;;;;;33.67;21.07;;;;;;;;;;5093507;28;20522;-70
2021/12/29 13:51:07;;;;;;;30.23;22.70;;;;;;;;;;5093980;28;20844;-70
2021/12/29 13:53:37;;;;;;;31.13;21.33;;;;;;;;;;5092864;28;20501;-70
2021/12/29 13:56:09;;;;;;;30.53;21.23;;;;;;;;;;5093787;28;20471;-70
2021/12/29 13:58:37;;;;;;;27.60;20.00;;;;;;;;;;5094392;28;20482;-70
2021/12/29 14:01:04;;;;;;;33.67;22.70;;;;;;;;;;5093947;28;20521;-70
2021/12/29 14:03:32;;;;;;;29.50;21.07;;;;;;;;;;5093590;28;20527;-70
2021/12/29 14:06:02;;;;;;;33.33;23.10;;;;;;;;;;5093386;28;20569;-69
2021/12/29 14:08:29;;;;;;;24.90;19.83;;;;;;;;;;5093162;28;20992;-69
2021/12/29 14:10:59;;;;;;;32.43;22.00;;;;;;;;;;5093815;28;20465;-69
2021/12/29 14:13:29;;;;;;;28.40;21.90;;;;;;;;;;5093653;28;20466;-69
2021/12/29 14:16:02;;;;;;;33.73;21.23;;;;;;;;;;5093071;28;20953;-69
2021/12/29 14:18:30;;;;;;;33.67;21.70;;;;;;;;;;5093827;28;20463;-69
2021/12/29 14:20:58;;;;;;;26.37;20.50;;;;;;;;;;5093188;28;20444;-69
2021/12/29 14:23:29;;;;;;;32.47;21.20;;;;;;;;;;5092976;28;20475;-69
2021/12/29 14:26:08;;;;;;;29.17;20.50;;;;;;;;;;5094070;28;20539;-69
2021/12/29 14:28:35;;;;;;;27.40;21.30;;;;;;;;;;5093552;28;20558;-70
2021/12/29 14:31:04;;;;;;;26.90;20.67;;;;;;;;;;5093310;28;20444;-69
2021/12/29 14:33:39;;;;;;;30.50;20.20;;;;;;;;;;5097172;28;20518;-69
2021/12/29 14:36:06;;;;;;;30.50;21.23;;;;;;;;;;5097094;28;20435;-70
2021/12/29 14:38:33;;;;;;;30.07;20.90;;;;;;;;;;5097320;28;20538;-69